Time;durP1;ratioP1;P1;durP2;ratioP2;P2;SDS_P1;SDS_P2;PMS_P1;PMS_P2;Temp;Humidity;BMP_temperature;BMP_pressure;BME280_temperature;BME280_humidity;BME280_pressure;Samples;Min_cycle;Max_cycle;Signal;HPM_P1;HPM_P2
2022/06/16 00:00:30;;;;;;;11.57;8.57;;;;;;;19.40;100.00;99510.31;4994137;28;20163;-84
2022/06/16 00:02:56;;;;;;;13.23;8.63;;;;;;;18.59;100.00;99366.56;4993984;28;20231;-85
2022/06/16 00:05:26;;;;;;;13.87;9.03;;;;;;;20.38;100.00;99668.00;4994332;28;20205;-85
2022/06/16 00:07:51;;;;;;;12.30;8.83;;;;;;;20.48;100.00;99674.13;4994516;28;20175;-84
2022/06/16 00:10:18;;;;;;;11.93;8.73;;;;;;;19.06;100.00;99414.13;4994251;28;20237;-84
2022/06/16 00:12:44;;;;;;;14.83;9.57;;;;;;;20.51;100.00;99671.56;4993973;28;20246;-83
2022/06/16 00:15:13;;;;;;;11.70;8.80;;;;;;;20.60;100.00;99676.81;4993787;28;20639;-82
2022/06/16 00:17:39;;;;;;;12.40;8.70;;;;;;;20.62;100.00;99676.78;4993866;28;20629;-84
2022/06/16 00:20:07;;;;;;;11.47;8.73;;;;;;;17.96;100.00;99235.97;4993297;28;20164;-82
2022/06/16 00:22:34;;;;;;;11.70;9.07;;;;;;;20.70;100.00;99670.88;4991520;28;20175;-83
2022/06/16 00:24:59;;;;;;;11.63;8.13;;;;;;;20.85;100.00;99672.69;4993267;28;20167;-83
2022/06/16 00:27:24;;;;;;;12.10;8.23;;;;;;;19.71;100.00;99490.91;4993456;28;20167;-83
2022/06/16 00:29:50;;;;;;;11.63;7.93;;;;;;;20.65;99.88;99661.38;4975626;28;20171;-84
2022/06/16 00:32:15;;;;;;;10.20;7.93;;;;;;;20.03;98.98;99538.28;4993005;28;20191;-83
2022/06/16 00:34:41;;;;;;;11.17;7.73;;;;;;;19.99;98.64;99519.44;4992756;28;20237;-83
2022/06/16 00:37:06;;;;;;;12.67;7.97;;;;;;;20.29;98.46;99569.38;4992793;28;20170;-84
2022/06/16 00:39:32;;;;;;;12.57;7.80;;;;;;;19.74;100.00;99516.63;4993188;28;20179;-83
2022/06/16 00:42:23;;;;;;;10.67;8.10;;;;;;;19.85;100.00;99533.00;4993110;28;20159;-85
2022/06/16 00:44:51;;;;;;;14.33;8.37;;;;;;;19.80;100.00;99563.81;4993042;28;20175;-84
2022/06/16 00:47:22;;;;;;;12.30;7.73;;;;;;;20.20;100.00;99657.53;4993240;28;20187;-84
2022/06/16 00:49:52;;;;;;;16.33;7.63;;;;;;;20.32;100.00;99655.13;4993085;28;20609;-84
2022/06/16 00:52:26;;;;;;;9.50;7.10;;;;;;;19.18;100.00;99450.16;4993146;28;20246;-84
2022/06/16 00:54:58;;;;;;;9.20;7.40;;;;;;;19.14;100.00;99470.66;4993339;28;20190;-85
2022/06/16 00:57:31;;;;;;;10.37;7.70;;;;;;;19.81;100.00;99585.19;4992500;28;20236;-84
2022/06/16 00:59:58;;;;;;;10.23;7.53;;;;;;;19.86;100.00;99606.69;4992318;28;20163;-84
2022/06/16 01:02:26;;;;;;;10.90;7.93;;;;;;;18.09;100.00;99284.81;4995215;28;20222;-84
2022/06/16 01:04:51;;;;;;;10.47;7.47;;;;;;;20.24;100.00;99643.91;5017131;28;20143;-84
2022/06/16 01:07:30;;;;;;;11.93;7.60;;;;;;;18.21;100.00;99318.25;5013883;28;20223;-83
2022/06/16 01:09:57;;;;;;;11.53;8.10;;;;;;;18.36;100.00;99320.13;5007453;28;20198;-83
2022/06/16 01:15:43;;;;;;;13.23;7.90;;;;;;;19.99;100.00;99647.06;4993944;28;20178;-83
2022/06/16 01:18:21;;;;;;;16.30;8.00;;;;;;;20.12;100.00;99654.03;4992953;28;20171;-84
2022/06/16 01:21:03;;;;;;;10.73;7.77;;;;;;;20.19;100.00;99663.53;4991735;28;20171;-84
2022/06/16 01:23:50;;;;;;;13.00;7.37;;;;;;;20.10;100.00;99650.59;4993041;28;20232;-83
2022/06/16 01:26:37;;;;;;;9.70;7.20;;;;;;;20.39;100.00;99654.31;4992821;28;20199;-82
2022/06/16 01:29:21;;;;;;;8.80;7.20;;;;;;;20.43;100.00;99655.22;4993507;28;20159;-84
2022/06/16 01:31:57;;;;;;;9.83;7.13;;;;;;;20.11;100.00;99600.06;4994074;28;20194;-84
2022/06/16 01:34:41;;;;;;;8.93;7.27;;;;;;;20.60;100.00;99657.06;4993371;28;20620;-84
2022/06/16 01:37:26;;;;;;;10.53;7.77;;;;;;;20.50;100.00;99665.56;4993724;28;20243;-84
2022/06/16 01:40:05;;;;;;;10.43;7.23;;;;;;;20.16;100.00;99632.63;4993220;28;20166;-84
2022/06/16 01:42:37;;;;;;;11.00;7.40;;;;;;;20.21;100.00;99663.56;4993662;28;20223;-83
2022/06/16 01:45:12;;;;;;;11.30;8.27;;;;;;;20.24;100.00;99654.19;4993560;28;20167;-85
2022/06/16 01:47:41;;;;;;;8.37;6.80;;;;;;;19.97;100.00;99566.50;4993022;28;20160;-83
2022/06/16 01:50:15;;;;;;;11.80;7.07;;;;;;;20.44;100.00;99637.22;4993954;28;20172;-82
2022/06/16 01:52:47;;;;;;;11.30;6.97;;;;;;;18.97;100.00;99380.66;4993216;28;20192;-82
2022/06/16 01:55:17;;;;;;;13.53;7.33;;;;;;;20.11;100.00;99574.34;4993340;28;20199;-83
2022/06/16 01:58:12;;;;;;;12.40;8.77;;;;;;;20.42;100.00;99656.06;4993042;28;20632;-83
2022/06/16 02:00:39;;;;;;;11.67;8.10;;;;;;;18.72;100.00;99381.25;4993683;28;20176;-83
2022/06/16 02:03:08;;;;;;;12.83;7.63;;;;;;;19.97;100.00;99603.34;4992782;28;20223;-83
2022/06/16 02:05:47;;;;;;;10.87;7.83;;;;;;;19.40;100.00;99492.31;4993269;28;20164;-83
2022/06/16 02:08:17;;;;;;;13.63;9.30;;;;;;;20.16;100.00;99642.09;4992807;28;20619;-83
2022/06/16 02:10:47;;;;;;;12.60;8.07;;;;;;;20.33;100.00;99654.25;4997165;28;20159;-83
2022/06/16 02:13:19;;;;;;;11.60;7.53;;;;;;;20.37;100.00;99660.31;4997157;28;20191;-83
2022/06/16 02:16:06;;;;;;;10.97;7.13;;;;;;;19.96;100.00;99569.94;4997704;28;20589;-83
2022/06/16 02:18:36;;;;;;;10.80;7.37;;;;;;;19.82;100.00;99533.84;4996952;28;20167;-84
2022/06/16 02:21:27;;;;;;;13.10;7.97;;;;;;;20.49;100.00;99661.25;4996211;28;20169;-83
2022/06/16 02:23:54;;;;;;;11.20;8.10;;;;;;;20.57;100.00;99664.75;4998104;28;20160;-84
2022/06/16 02:26:20;;;;;;;9.17;7.30;;;;;;;19.95;99.56;99566.50;4978939;28;20646;-82
2022/06/16 02:28:49;;;;;;;12.07;7.23;;;;;;;20.40;100.00;99663.78;4996830;28;20164;-83
2022/06/16 02:31:43;;;;;;;10.50;7.33;;;;;;;20.49;99.52;99663.81;4995904;28;20167;-83
2022/06/16 02:34:36;;;;;;;13.57;7.73;;;;;;;20.23;99.07;99613.88;4995483;28;20164;-84
2022/06/16 02:37:12;;;;;;;9.83;7.37;;;;;;;20.43;100.00;99670.66;4994954;28;20211;-84
2022/06/16 02:39:50;;;;;;;9.50;6.90;;;;;;;19.46;100.00;99500.09;4994136;28;20167;-83
2022/06/16 02:42:18;;;;;;;15.97;7.87;;;;;;;20.44;99.82;99667.19;4995330;28;20164;-84
2022/06/16 02:44:49;;;;;;;13.93;7.33;;;;;;;20.21;100.00;99660.97;4995432;28;20186;-83
2022/06/16 02:47:48;;;;;;;9.87;7.10;;;;;;;19.48;100.00;99546.31;5002443;28;20167;-83
2022/06/16 02:50:36;;;;;;;12.83;7.00;;;;;;;19.52;100.00;99519.84;5009673;28;20217;-84
2022/06/16 02:53:16;;;;;;;11.00;7.27;;;;;;;19.66;100.00;99560.22;4999609;28;20191;-84
2022/06/16 02:55:46;;;;;;;18.57;8.00;;;;;;;20.19;100.00;99654.97;4997038;28;20203;-84
2022/06/16 02:58:17;;;;;;;11.93;7.23;;;;;;;19.61;100.00;99555.91;4996189;28;20160;-84
2022/06/16 03:00:47;;;;;;;11.33;7.63;;;;;;;20.39;100.00;99666.31;4995694;28;20655;-84
2022/06/16 03:03:16;;;;;;;14.77;7.80;;;;;;;20.01;100.00;99599.09;4995339;28;20231;-85
2022/06/16 03:05:42;;;;;;;10.87;7.23;;;;;;;19.93;100.00;99598.16;4994897;28;20159;-85
2022/06/16 03:08:07;;;;;;;14.77;6.97;;;;;;;20.33;100.00;99667.13;4994973;28;20206;-84
2022/06/16 03:10:51;;;;;;;11.50;7.13;;;;;;;19.84;99.71;99580.94;4994963;28;20168;-83
2022/06/16 03:13:21;;;;;;;8.10;6.47;;;;;;;20.39;99.67;99668.88;4995512;28;20203;-83
2022/06/16 03:15:49;;;;;;;9.93;6.60;;;;;;;20.39;99.00;99677.47;4995349;28;20167;-83
2022/06/16 03:18:15;;;;;;;12.27;7.33;;;;;;;20.05;98.72;99605.13;4995017;28;20155;-83
2022/06/16 03:20:40;;;;;;;11.37;6.90;;;;;;;20.35;98.71;99680.88;4994377;28;20168;-83
2022/06/16 03:23:06;;;;;;;10.97;6.67;;;;;;;20.38;98.69;99682.59;4994384;28;20151;-82
2022/06/16 03:25:32;;;;;;;11.57;7.30;;;;;;;18.39;99.70;99379.13;4994231;28;20560;-83
2022/06/16 03:27:58;;;;;;;13.43;7.63;;;;;;;20.21;100.00;99681.53;4994264;28;20247;-83
2022/06/16 03:30:24;;;;;;;13.53;7.70;;;;;;;20.46;99.04;99686.94;4994114;28;20568;-83
2022/06/16 03:32:49;;;;;;;16.40;8.07;;;;;;;19.68;98.05;99537.13;4994171;28;20241;-83
2022/06/16 03:35:16;;;;;;;13.10;7.07;;;;;;;20.18;98.28;99642.94;4994297;28;20699;-83
2022/06/16 03:37:42;;;;;;;11.17;6.97;;;;;;;20.20;98.69;99649.81;4994432;28;20171;-83
2022/06/16 03:40:11;;;;;;;13.17;7.13;;;;;;;20.56;98.33;99693.91;4993956;28;20159;-83
2022/06/16 03:42:37;;;;;;;11.53;6.97;;;;;;;20.35;98.57;99674.88;4994208;28;20175;-83
2022/06/16 03:45:03;;;;;;;13.57;7.40;;;;;;;20.29;98.84;99665.38;4995061;28;20556;-85
2022/06/16 03:47:28;;;;;;;13.67;7.73;;;;;;;19.34;98.98;99516.19;4996281;28;20554;-86
2022/06/16 03:49:54;;;;;;;12.30;7.53;;;;;;;17.01;100.00;99159.63;4994976;28;20197;-86
2022/06/16 03:52:19;;;;;;;12.87;7.70;;;;;;;17.17;99.97;99180.31;4995260;28;20191;-86
2022/06/16 03:54:44;;;;;;;13.10;7.13;;;;;;;20.15;100.00;99681.47;4996392;28;20233;-87
2022/06/16 03:57:10;;;;;;;13.50;7.73;;;;;;;20.24;100.00;99689.28;4998915;28;20194;-90
2022/06/16 03:59:35;;;;;;;14.13;8.33;;;;;;;19.42;100.00;99565.97;5006895;28;20175;-92
2022/06/16 04:02:01;;;;;;;14.13;8.43;;;;;;;19.71;100.00;99614.22;4999710;28;20219;-88
2022/06/16 04:04:28;;;;;;;11.33;8.37;;;;;;;19.64;100.00;99573.91;4979642;28;20210;-86
2022/06/16 04:06:54;;;;;;;15.07;8.70;;;;;;;18.53;99.19;99357.09;4996932;28;20214;-84
2022/06/16 04:09:20;;;;;;;13.47;8.50;;;;;;;17.42;98.57;99165.28;4998913;28;20171;-85
2022/06/16 04:11:45;;;;;;;11.87;7.60;;;;;;;19.21;97.33;99442.47;4995063;28;20176;-83
2022/06/16 04:14:12;;;;;;;11.03;7.30;;;;;;;20.76;97.23;99706.06;4976183;28;20322;-83
2022/06/16 04:16:52;;;;;;;12.77;7.50;;;;;;;20.85;96.41;99698.44;4983315;28;20238;-83
2022/06/16 04:19:21;;;;;;;14.27;7.57;;;;;;;20.59;97.12;99701.66;4992003;28;20233;-84
2022/06/16 04:21:48;;;;;;;12.77;7.47;;;;;;;19.52;97.25;99520.72;4984257;28;20222;-83
2022/06/16 04:24:15;;;;;;;11.73;7.10;;;;;;;20.65;97.20;99698.28;4992142;28;20182;-84
2022/06/16 04:26:41;;;;;;;13.20;7.30;;;;;;;20.66;96.92;99705.13;5005620;28;20201;-83
2022/06/16 04:29:08;;;;;;;14.37;7.43;;;;;;;20.40;96.84;99666.34;5011816;28;20179;-84
2022/06/16 04:31:34;;;;;;;11.47;7.70;;;;;;;20.10;97.05;99634.31;5011140;28;20266;-84
2022/06/16 04:34:00;;;;;;;17.07;8.60;;;;;;;19.68;99.73;99619.31;4991329;28;20183;-84
2022/06/16 04:36:26;;;;;;;11.60;7.77;;;;;;;19.32;99.36;99525.59;4991778;28;20245;-83
2022/06/16 04:38:53;;;;;;;12.30;8.40;;;;;;;19.88;97.69;99600.72;4974634;28;20187;-84
2022/06/16 04:41:18;;;;;;;13.03;9.10;;;;;;;20.29;97.29;99657.66;4992461;28;20270;-84
2022/06/16 04:43:44;;;;;;;16.43;11.07;;;;;;;19.76;96.82;99576.59;4990863;28;20983;-83
2022/06/16 04:46:13;;;;;;;19.83;12.43;;;;;;;20.51;96.20;99705.88;4991649;28;20206;-82
2022/06/16 04:48:38;;;;;;;15.57;11.50;;;;;;;18.61;94.33;99370.88;4991872;28;20189;-84
2022/06/16 04:51:04;;;;;;;15.40;12.30;;;;;;;20.19;94.61;99632.66;4993639;28;20266;-83
2022/06/16 04:53:30;;;;;;;15.63;12.63;;;;;;;18.69;95.61;99404.28;4992136;28;20211;-85
2022/06/16 04:55:58;;;;;;;17.50;12.50;;;;;;;20.56;95.97;99706.78;4991303;28;20648;-85
2022/06/16 04:58:25;;;;;;;18.17;11.60;;;;;;;19.75;94.91;99542.31;4991678;28;20189;-84
2022/06/16 05:00:52;;;;;;;16.00;10.90;;;;;;;20.28;94.51;99626.78;4991359;28;20194;-84
2022/06/16 05:03:19;;;;;;;19.97;10.83;;;;;;;20.66;95.43;99704.28;4991711;28;20225;-84
2022/06/16 05:05:46;;;;;;;16.43;10.77;;;;;;;19.56;95.02;99513.91;4991682;28;20644;-85
2022/06/16 05:08:12;;;;;;;17.37;10.77;;;;;;;20.81;95.04;99712.09;4992566;28;20187;-84
2022/06/16 05:10:38;;;;;;;14.37;10.60;;;;;;;20.24;94.95;99607.91;4982360;28;20179;-85
2022/06/16 05:13:03;;;;;;;16.87;11.83;;;;;;;20.53;95.30;99663.00;5005824;28;20194;-85
2022/06/16 05:15:29;;;;;;;22.10;12.20;;;;;;;19.32;95.93;99447.72;5005377;28;20266;-85
2022/06/16 05:17:54;;;;;;;23.17;14.47;;;;;;;20.55;97.04;99650.16;5001092;28;20191;-85
2022/06/16 05:20:19;;;;;;;29.70;15.40;;;;;;;20.75;95.73;99679.47;4996275;28;20187;-84
2022/06/16 05:22:45;;;;;;;21.50;14.53;;;;;;;20.85;94.74;99663.22;4992930;28;20752;-85
2022/06/16 05:25:10;;;;;;;21.57;14.53;;;;;;;21.21;93.88;99708.97;4992016;28;20179;-85
2022/06/16 05:27:36;;;;;;;23.27;14.90;;;;;;;20.62;93.34;99589.31;4992052;28;20270;-85
2022/06/16 05:30:03;;;;;;;20.27;14.73;;;;;;;21.42;92.69;99710.81;4991330;28;20183;-85
2022/06/16 05:32:29;;;;;;;17.07;12.47;;;;;;;21.17;91.31;99658.31;4971719;28;20215;-85
2022/06/16 05:34:54;;;;;;;17.90;12.20;;;;;;;21.17;92.35;99678.94;4972008;28;20195;-85
2022/06/16 05:37:20;;;;;;;19.13;12.40;;;;;;;21.31;95.22;99715.94;4972084;28;20850;-85
2022/06/16 05:39:47;;;;;;;13.83;9.50;;;;;;;21.49;91.57;99713.44;4971870;28;20188;-85
2022/06/16 05:42:13;;;;;;;13.30;9.70;;;;;;;19.86;91.34;99444.81;4968275;28;20225;-84
2022/06/16 05:44:38;;;;;;;13.97;10.33;;;;;;;21.53;93.95;99719.47;4992740;28;20266;-85
2022/06/16 05:47:05;;;;;;;14.50;9.13;;;;;;;20.60;90.40;99537.88;4994732;28;20690;-84
2022/06/16 05:49:31;;;;;;;16.87;9.37;;;;;;;21.73;90.09;99718.69;4994812;28;20238;-84
2022/06/16 05:51:56;;;;;;;12.93;9.07;;;;;;;21.99;88.96;99723.13;4994584;28;20210;-86
2022/06/16 05:54:22;;;;;;;17.90;9.03;;;;;;;22.14;86.85;99724.00;4994769;28;20206;-84
2022/06/16 05:56:47;;;;;;;14.90;9.37;;;;;;;21.20;87.74;99593.97;4994847;28;20167;-84
2022/06/16 05:59:14;;;;;;;13.73;9.27;;;;;;;21.99;85.75;99668.97;4994056;28;20183;-84
2022/06/16 06:01:39;;;;;;;13.37;9.33;;;;;;;21.32;82.90;99515.88;5004826;28;20233;-85
2022/06/16 06:04:05;;;;;;;17.00;9.77;;;;;;;22.13;81.64;99626.88;5013424;28;20187;-85
2022/06/16 06:06:30;;;;;;;13.87;9.83;;;;;;;22.77;81.95;99736.16;5013507;28;20618;-85
2022/06/16 06:17:16;;;;;;;17.10;12.23;;;;;;;20.69;81.61;99380.09;4993742;28;20330;-85
2022/06/16 06:19:41;;;;;;;18.83;12.20;;;;;;;21.95;81.12;99564.97;4993963;28;20187;-84
2022/06/16 06:22:16;;;;;;;22.90;12.40;;;;;;;22.56;79.34;99609.66;4993514;28;20188;-85
2022/06/16 06:24:41;;;;;;;16.97;12.23;;;;;;;23.40;79.38;99739.59;4993573;28;20922;-85
2022/06/16 06:27:14;;;;;;;19.13;12.60;;;;;;;22.90;77.90;99642.34;4993485;28;20237;-85
2022/06/16 06:29:41;;;;;;;29.23;21.47;;;;;;;22.00;78.23;99516.84;4993595;28;20266;-85
2022/06/16 06:32:07;;;;;;;23.57;15.53;;;;;;;22.53;80.44;99702.56;4993383;28;20199;-84
2022/06/16 06:34:35;;;;;;;22.60;14.93;;;;;;;22.04;81.60;99624.28;4993479;28;20187;-85
2022/06/16 06:37:01;;;;;;;22.20;15.50;;;;;;;22.08;80.22;99577.03;4976082;28;20684;-85
2022/06/16 06:39:27;;;;;;;22.87;16.23;;;;;;;21.01;79.06;99384.44;4993805;28;20735;-86
2022/06/16 06:41:52;;;;;;;22.67;15.80;;;;;;;21.10;79.59;99399.94;4994433;28;20282;-84
2022/06/16 06:44:18;;;;;;;25.73;17.10;;;;;;;21.91;78.32;99518.56;4994195;28;20187;-84
2022/06/16 06:46:43;;;;;;;25.10;17.73;;;;;;;22.96;77.70;99680.22;4993451;28;20182;-84
2022/06/16 06:49:17;;;;;;;25.43;18.03;;;;;;;23.08;78.00;99684.47;4993369;28;20241;-85
2022/06/16 06:51:43;;;;;;;28.93;19.63;;;;;;;22.23;77.51;99551.22;4993881;28;20234;-85
2022/06/16 06:54:08;;;;;;;26.07;18.50;;;;;;;22.71;76.90;99601.94;4993439;28;20187;-85
2022/06/16 06:56:34;;;;;;;25.70;18.37;;;;;;;22.60;76.65;99564.06;4992484;28;20636;-85
2022/06/16 06:59:04;;;;;;;28.43;18.07;;;;;;;23.05;76.36;99622.50;4993240;28;20179;-86
2022/06/16 07:01:29;;;;;;;25.93;19.47;;;;;;;23.18;75.99;99637.97;4992733;28;20186;-85
2022/06/16 07:03:55;;;;;;;25.70;19.20;;;;;;;23.03;74.97;99583.78;4993660;28;20563;-85
2022/06/16 07:06:20;;;;;;;27.17;18.63;;;;;;;24.27;73.07;99717.66;4993180;28;20183;-84
2022/06/16 07:08:46;;;;;;;26.27;18.20;;;;;;;24.70;70.67;99738.91;4987934;28;20215;-84
2022/06/16 07:11:12;;;;;;;28.23;19.50;;;;;;;24.15;68.69;99569.38;4979616;28;20183;-84
2022/06/16 07:13:38;;;;;;;24.70;18.17;;;;;;;25.50;67.15;99734.75;4992642;28;20202;-87
2022/06/16 07:16:04;;;;;;;26.80;19.00;;;;;;;23.63;65.83;99391.38;4981134;28;20322;-84
2022/06/16 07:18:30;;;;;;;29.10;20.73;;;;;;;25.88;64.41;99735.16;4992847;28;20222;-86
2022/06/16 07:20:55;;;;;;;35.93;23.77;;;;;;;23.12;66.52;99399.50;4991475;28;20274;-86
2022/06/16 07:23:21;;;;;;;32.93;22.70;;;;;;;23.98;66.19;99534.13;4991969;28;20269;-85
2022/06/16 07:25:50;;;;;;;32.87;23.90;;;;;;;24.33;67.18;99644.28;4992708;28;20261;-86
2022/06/16 07:28:16;;;;;;;33.20;23.47;;;;;;;24.79;67.00;99700.03;4972341;28;20198;-86
2022/06/16 07:30:43;;;;;;;34.40;25.77;;;;;;;24.86;65.32;99735.34;4981960;28;20195;-86
2022/06/16 07:33:09;;;;;;;32.80;23.40;;;;;;;24.95;64.79;99623.88;4992359;28;20207;-84
2022/06/16 07:35:36;;;;;;;33.23;24.37;;;;;;;26.05;62.85;99741.00;4991041;28;20282;-85
2022/06/16 07:38:02;;;;;;;33.17;24.57;;;;;;;24.22;64.38;99563.31;4992142;28;20559;-85
2022/06/16 07:40:28;;;;;;;35.37;25.67;;;;;;;24.93;65.95;99736.19;4991938;28;20175;-85
2022/06/16 07:42:57;;;;;;;34.57;25.27;;;;;;;24.20;67.66;99642.69;4954310;28;21067;-85
2022/06/16 07:45:24;;;;;;;37.17;26.97;;;;;;;24.78;67.20;99726.75;4992214;28;20321;-86
2022/06/16 07:47:53;;;;;;;37.50;25.60;;;;;;;24.18;70.25;99733.22;4973035;28;20180;-85
2022/06/16 07:50:20;;;;;;;35.53;25.70;;;;;;;22.47;73.91;99575.28;4985541;28;20197;-85
2022/06/16 07:52:45;;;;;;;38.60;26.10;;;;;;;23.16;72.30;99582.84;4991899;28;20769;-86
2022/06/16 07:55:11;;;;;;;37.87;25.77;;;;;;;24.87;69.11;99731.91;4991249;28;20180;-86
2022/06/16 07:57:46;;;;;;;32.97;23.93;;;;;;;24.76;69.62;99743.19;4991642;28;20183;-85
2022/06/16 08:00:14;;;;;;;32.97;24.20;;;;;;;25.75;65.46;99741.38;4986157;28;20273;-85
2022/06/16 08:02:40;;;;;;;33.17;23.50;;;;;;;24.56;63.52;99503.41;4991386;28;20218;-85
2022/06/16 08:05:06;;;;;;;33.53;23.97;;;;;;;25.78;62.12;99629.81;4991359;28;20176;-86
2022/06/16 08:07:32;;;;;;;33.00;23.47;;;;;;;25.88;60.00;99617.53;4991009;28;20179;-86
2022/06/16 08:09:57;;;;;;;29.90;22.88;;;;;;;25.69;58.36;99464.78;4989122;28;20323;-85
2022/06/16 08:12:24;;;;;;;30.02;23.48;;;;;;;26.73;56.53;99581.53;4991375;28;20213;-85
2022/06/16 08:14:50;;;;;;;32.53;24.58;;;;;;;26.79;56.65;99658.53;4991103;28;20194;-84
2022/06/16 08:17:24;;;;;;;29.75;23.40;;;;;;;27.10;57.03;99713.44;4981307;28;20227;-84
2022/06/16 08:19:50;;;;;;;31.23;23.75;;;;;;;26.16;58.23;99586.00;4983869;28;20639;-85
2022/06/16 08:22:15;;;;;;;29.90;23.20;;;;;;;25.64;60.21;99614.44;4989189;28;20189;-84
2022/06/16 08:24:41;;;;;;;30.58;24.20;;;;;;;25.70;61.65;99619.53;4972058;28;20193;-82
2022/06/16 08:27:07;;;;;;;28.45;23.33;;;;;;;26.46;60.22;99752.56;4974932;28;20188;-85
2022/06/16 08:29:33;;;;;;;31.90;23.42;;;;;;;26.13;59.54;99663.03;4989287;28;20207;-85
2022/06/16 08:31:59;;;;;;;28.23;23.00;;;;;;;25.72;59.69;99596.16;4991518;28;20650;-84
2022/06/16 08:34:25;;;;;;;31.65;24.33;;;;;;;25.78;61.97;99702.44;4991875;28;20863;-86
2022/06/16 08:36:50;;;;;;;31.15;24.00;;;;;;;24.97;61.71;99569.47;4991931;28;20205;-85
2022/06/16 08:39:16;;;;;;;33.70;24.65;;;;;;;25.52;61.94;99630.16;4992943;28;20185;-85
2022/06/16 08:42:06;;;;;;;31.85;24.75;;;;;;;26.58;61.42;99739.41;4992932;28;20237;-85
2022/06/16 08:45:01;;;;;;;42.63;27.40;;;;;;;27.30;59.96;99734.72;4991440;28;20183;-85
2022/06/16 08:47:36;;;;;;;31.75;25.05;;;;;;;25.58;58.58;99460.66;4991741;28;21208;-86
2022/06/16 08:50:23;;;;;;;31.88;25.17;;;;;;;26.33;59.13;99614.28;4991575;28;20505;-85
2022/06/16 08:53:03;;;;;;;31.02;24.27;;;;;;;26.66;58.91;99725.41;4991769;28;20207;-86
2022/06/16 08:55:31;;;;;;;30.77;24.33;;;;;;;26.66;59.35;99725.41;4994974;28;20200;-84
2022/06/16 08:58:09;;;;;;;31.88;25.63;;;;;;;25.27;59.32;99425.69;5001158;28;20185;-85
2022/06/16 09:00:44;;;;;;;31.23;23.65;;;;;;;27.58;56.57;99719.50;4973222;28;20244;-85
2022/06/16 09:03:34;;;;;;;30.67;23.48;;;;;;;27.19;57.28;99724.53;4972096;28;20234;-84
2022/06/16 09:06:27;;;;;;;30.50;23.23;;;;;;;27.21;56.27;99725.34;4971115;28;20191;-85
2022/06/16 09:09:05;;;;;;;30.73;21.75;;;;;;;27.02;56.68;99713.56;4973979;28;20194;-85
2022/06/16 09:11:48;;;;;;;30.95;23.05;;;;;;;26.35;58.51;99712.03;4991326;28;20658;-85
2022/06/16 09:17:35;;;;;;;27.77;22.70;;;;;;;26.63;55.91;99520.25;4901382;29;20256;-85
2022/06/16 09:20:14;;;;;;;23.33;19.55;;;;;;;26.50;52.46;99518.78;4914765;29;20190;-86
2022/06/16 09:22:58;;;;;;;26.33;19.77;;;;;;;27.86;51.99;99708.47;4957509;29;20285;-86
2022/06/16 09:26:02;;;;;;;24.52;18.60;;;;;;;27.79;51.00;99708.63;4948308;28;20202;-87
2022/06/16 09:29:12;;;;;;;25.42;19.70;;;;;;;27.60;53.00;99697.75;4849057;29;20205;-85
2022/06/16 09:31:57;;;;;;;27.05;19.10;;;;;;;27.48;51.68;99594.81;4841130;29;20207;-86
2022/06/16 09:34:35;;;;;;;25.98;21.02;;;;;;;27.87;50.96;99593.06;4841448;29;20218;-86
2022/06/16 09:37:25;;;;;;;24.52;19.15;;;;;;;27.88;50.93;99594.75;4841757;29;20287;-85
2022/06/16 09:39:58;;;;;;;24.20;19.42;;;;;;;28.18;49.94;99602.78;4833821;29;20223;-85
2022/06/16 09:42:56;;;;;;;26.85;20.30;;;;;;;28.64;49.29;99650.28;4822903;29;20214;-85
2022/06/16 09:45:57;;;;;;;24.08;20.15;;;;;;;28.61;50.20;99697.22;4804596;29;20198;-86
2022/06/16 09:48:32;;;;;;;29.05;20.88;;;;;;;28.45;50.85;99686.31;4768143;30;20272;-85
2022/06/16 09:51:21;;;;;;;24.55;20.48;;;;;;;28.67;51.05;99687.53;4780283;30;20205;-85
2022/06/16 09:53:58;;;;;;;23.73;20.38;;;;;;;27.79;49.39;99503.03;4786019;30;20293;-86
2022/06/16 09:56:33;;;;;;;22.40;19.48;;;;;;;28.22;50.30;99688.59;4785982;30;20203;-84
2022/06/16 09:59:16;;;;;;;22.08;19.10;;;;;;;27.94;49.37;99609.38;4785949;30;20204;-84
2022/06/16 10:01:47;;;;;;;21.23;17.42;;;;;;;28.35;48.95;99648.34;4786671;30;20226;-85
2022/06/16 10:04:13;;;;;;;22.95;18.65;;;;;;;27.96;48.91;99572.00;4786558;30;20297;-86
2022/06/16 10:07:16;;;;;;;22.30;15.95;;;;;;;28.75;47.92;99673.44;4837850;29;20348;-85
2022/06/16 10:10:11;;;;;;;18.85;16.85;;;;;;;27.09;50.98;99598.19;4829440;29;20294;-85
2022/06/16 10:12:51;;;;;;;21.20;16.58;;;;;;;27.61;51.73;99667.41;4822804;29;20265;-85
2022/06/16 10:15:30;;;;;;;18.70;15.68;;;;;;;27.73;50.11;99667.13;4831545;29;20205;-86
2022/06/16 10:17:58;;;;;;;20.13;16.00;;;;;;;27.99;49.52;99649.19;4822965;29;20704;-86
2022/06/16 10:20:24;;;;;;;16.67;14.63;;;;;;;27.39;48.54;99607.97;4822352;29;20197;-85
2022/06/16 10:23:00;;;;;;;17.00;13.18;;;;;;;28.16;49.01;99643.59;4879093;28;20197;-85
2022/06/16 10:25:35;;;;;;;16.05;13.38;;;;;;;28.43;48.77;99650.78;4974934;28;20176;-86
2022/06/16 10:28:15;;;;;;;14.75;13.25;;;;;;;27.96;48.57;99610.22;4974812;28;20729;-86
2022/06/16 10:30:40;;;;;;;17.90;13.85;;;;;;;25.75;49.20;99270.16;4977137;28;20238;-85
2022/06/16 10:33:06;;;;;;;16.33;13.65;;;;;;;28.48;48.39;99649.78;4978361;28;20211;-86
2022/06/16 10:35:32;;;;;;;18.13;13.73;;;;;;;28.90;48.46;99652.22;4976691;28;20221;-85
2022/06/16 10:37:58;;;;;;;14.00;12.63;;;;;;;28.64;47.19;99599.00;4987745;28;20706;-86
2022/06/16 10:40:29;;;;;;;16.15;13.10;;;;;;;28.70;47.25;99589.31;4993529;28;20203;-86
2022/06/16 10:43:00;;;;;;;14.40;12.40;;;;;;;27.79;46.87;99407.63;4994957;28;20211;-86
2022/06/16 10:45:32;;;;;;;16.02;14.23;;;;;;;28.59;47.54;99566.97;4994509;28;20195;-86
2022/06/16 10:48:28;;;;;;;14.40;13.00;;;;;;;26.52;47.74;99170.75;4994777;28;20192;-85
2022/06/16 10:51:25;;;;;;;15.10;13.60;;;;;;;29.06;47.22;99640.47;4993664;28;20575;-86
2022/06/16 10:54:12;;;;;;;14.95;13.45;;;;;;;29.34;47.76;99636.19;4993017;28;20695;-84
2022/06/16 10:56:39;;;;;;;13.68;12.27;;;;;;;28.93;47.67;99553.88;4994318;28;20185;-85
2022/06/16 10:59:26;;;;;;;13.93;12.52;;;;;;;28.58;49.13;99629.53;4994309;28;20820;-87
2022/06/16 11:02:04;;;;;;;13.90;12.38;;;;;;;27.93;48.70;99503.56;4994017;28;20237;-86
2022/06/16 11:04:38;;;;;;;14.57;13.15;;;;;;;28.48;48.59;99587.25;4993832;28;20193;-84
2022/06/16 11:07:05;;;;;;;14.98;13.48;;;;;;;28.35;48.60;99538.13;5000918;28;20209;-83
2022/06/16 11:09:34;;;;;;;15.52;13.95;;;;;;;28.56;49.57;99590.50;4996032;28;20190;-84
2022/06/16 11:12:15;;;;;;;14.50;13.00;;;;;;;28.91;48.14;99594.81;4995786;28;20186;-86
2022/06/16 11:14:45;;;;;;;17.85;14.10;;;;;;;29.21;48.18;99612.22;5001592;28;20183;-85
2022/06/16 11:17:42;;;;;;;13.25;11.95;;;;;;;27.24;47.44;99244.31;4981748;28;20237;-85
2022/06/16 11:20:16;;;;;;;14.25;12.60;;;;;;;29.20;47.09;99614.84;4993935;28;20214;-85
2022/06/16 11:22:45;;;;;;;17.13;12.80;;;;;;;29.45;47.08;99615.88;4993936;28;20190;-86
2022/06/16 11:25:37;;;;;;;14.00;12.60;;;;;;;28.86;48.13;99590.59;4993677;28;20186;-84
2022/06/16 11:28:13;;;;;;;13.40;12.10;;;;;;;26.50;48.64;99304.97;4914187;29;20201;-85
2022/06/16 11:30:47;;;;;;;15.80;12.50;;;;;;;27.85;48.76;99552.34;4914583;29;20195;-84
2022/06/16 11:36:36;;;;;;;12.95;11.60;;;;;;;28.87;45.15;99550.63;4914624;29;20201;-84
2022/06/16 11:39:25;;;;;;;12.77;11.57;;;;;;;29.33;43.10;99433.63;4914517;29;20202;-84
2022/06/16 11:41:53;;;;;;;13.20;11.80;;;;;;;30.85;40.85;99550.34;4914008;29;20196;-85
2022/06/16 11:44:31;;;;;;;11.75;10.70;;;;;;;31.35;39.88;99508.38;4914902;29;20366;-86
2022/06/16 11:47:41;;;;;;;11.63;10.45;;;;;;;32.62;38.83;99602.75;4915675;29;20201;-90
2022/06/16 11:50:10;;;;;;;11.32;10.27;;;;;;;31.84;40.43;99607.69;4899609;29;20200;-89
2022/06/16 11:52:43;;;;;;;12.40;11.10;;;;;;;30.76;42.23;99597.75;4916120;29;20698;-87
2022/06/16 11:55:20;;;;;;;12.27;11.02;;;;;;;32.13;40.12;99601.31;4916844;29;20190;-87
2022/06/16 11:58:14;;;;;;;13.20;10.73;;;;;;;32.08;38.73;99520.25;4916769;29;20208;-87